Latest Weather Observations for Mount Moornapa

IDV60801

Issued at 10:32 pm EST Thursday 29 June 2017 (issued every 30 minutes, with the page automatically refreshed every 10 minutes)

About weather observations | Map of weather stations | Latest weather observations for VIC | Other Formats
Station Details ID: 085296 Name: MOUNT MOORNAPA Lat: -37.75 Lon: 147.14 Height: 480.0 m
Data from the previous 72 hours. | See also: Recent months at Mount Moornapa
Date/Time
EST
Temp
°C
App
Temp
°C
Dew
Point
°C
Rel
Hum
%
Delta-T
°C
Wind Press
QNH
hPa
Press
MSL
hPa
Rain since
9am
mm
Dir  Spd
km/h
Gust
km/h
Spd
kts
Gust
kts
29/10:30pm 5.1 1.4 4.2 94 0.4 WSW 13 43 7 23 - - 1.4
29/10:00pm 5.3 1.6 4.7 96 0.3 WSW 13 32 7 17 - - 1.4
29/09:30pm 5.6 2.0 4.9 95 0.3 SW 13 33 7 18 - - 1.2
29/09:00pm 5.9 1.9 4.9 93 0.4 WSW 15 30 8 16 - - 1.0
29/08:30pm 6.0 2.1 5.4 96 0.3 W 15 33 8 18 - - 1.0
29/08:00pm 5.7 1.8 5.4 98 0.1 W 15 26 8 14 - - 1.0
29/07:30pm 5.9 1.6 5.3 96 0.3 W 17 33 9 18 - - 1.0
29/07:00pm 6.0 3.7 5.6 97 0.2 SW 7 22 4 12 - - 0.6
29/06:30pm 6.4 4.1 4.9 90 0.7 SW 6 17 3 9 - - 0.2
29/06:00pm 8.9 5.6 2.5 64 2.8 W 9 19 5 10 - - 0.0
29/05:30pm 8.7 5.4 2.7 66 2.6 W 9 22 5 12 - - 0.0
29/05:00pm 9.1 5.5 2.9 65 2.7 WNW 11 20 6 11 - - 0.0
29/04:30pm 9.8 6.3 3.5 65 2.8 W 11 28 6 15 - - 0.0
29/04:00pm 9.5 6.5 4.3 70 2.4 WNW 9 19 5 10 - - 0.0
29/03:30pm 9.3 6.9 5.1 75 1.9 W 7 13 4 7 - - 0.0
29/03:00pm 9.4 7.2 5.4 76 1.9 SSW 6 17 3 9 - - 0.0
29/02:30pm 11.4 8.4 3.9 60 3.4 W 9 17 5 9 - - 0.0
29/02:00pm 11.5 8.7 3.3 57 3.7 W 7 20 4 11 - - 0.0
29/01:30pm 11.2 8.1 3.5 59 3.5 W 9 28 5 15 - - 0.0
29/01:00pm 11.3 7.8 3.3 58 3.6 W 11 28 6 15 - - 0.0
29/12:30pm 11.4 7.4 2.7 55 3.9 WNW 13 28 7 15 - - 0.0
29/12:00pm 11.6 8.1 3.4 57 3.7 W 11 24 6 13 - - 0.0
29/11:30am 12.6 9.5 3.6 54 4.1 W 9 26 5 14 - - 0.0
29/11:00am 11.9 9.5 4.2 59 3.6 WNW 6 17 3 9 - - 0.0
29/10:30am 10.5 7.8 3.8 63 3.0 WNW 7 19 4 10 - - 0.0
29/10:00am 9.8 7.0 3.3 64 2.9 NW 7 13 4 7 - - 0.0
29/09:30am 9.5 6.8 3.5 66 2.7 NW 7 15 4 8 - - 0.0
29/09:00am 8.4 5.2 3.3 70 2.2 NW 9 15 5 8 - - 0.0
29/08:30am 6.8 3.6 2.9 76 1.7 NW 9 13 5 7 - - 0.0
29/08:00am 6.6 3.3 2.5 75 1.7 NW 9 17 5 9 - - 0.0
29/07:30am 6.0 2.6 2.1 76 1.6 NNW 9 13 5 7 - - 0.0
29/07:00am 6.0 3.0 1.7 74 1.8 NNW 7 11 4 6 - - 0.0
29/06:30am 6.4 3.4 1.9 73 1.9 NNW 7 9 4 5 - - 0.0
29/06:00am 6.3 2.9 1.6 72 1.9 NNW 9 13 5 7 - - 0.0
29/05:30am 6.1 2.6 1.4 72 1.9 NNW 9 15 5 8 - - 0.0
29/05:00am 5.4 1.2 1.5 76 1.6 N 13 20 7 11 - - 0.0
29/04:30am 6.0 2.5 1.5 73 1.9 NNW 9 15 5 8 - - 0.0
29/04:00am 5.6 2.1 1.5 75 1.7 NW 9 13 5 7 - - 0.0
29/03:30am 6.1 2.7 1.8 74 1.8 NW 9 15 5 8 - - 0.0
29/03:00am 5.3 1.9 2.0 79 1.4 NW 9 15 5 8 - - 0.0
29/02:30am 5.7 2.3 1.8 76 1.6 N 9 13 5 7 - - 0.0
29/02:00am 5.5 1.4 2.2 79 1.4 N 13 15 7 8 - - 0.0
29/01:30am 6.1 2.4 2.6 78 1.5 N 11 13 6 7 - - 0.0
29/01:00am 5.6 1.6 2.6 81 1.3 N 13 17 7 9 - - 0.0
29/12:30am 5.7 2.1 2.7 81 1.3 N 11 15 6 8 - - 0.0
29/12:00am 6.1 2.1 2.7 79 1.4 N 13 17 7 9 - - 0.0
 
Date/Time
EST
Temp
°C
App
Temp
°C
Dew
Point
°C
Rel
Hum
%
Delta-T
°C
Wind Press
QNH
hPa
Press
MSL
hPa
Rain since
9am
mm
Dir  Spd
km/h
Gust
km/h
Spd
kts
Gust
kts
28/11:30pm 6.0 1.9 2.5 78 1.5 N 13 17 7 9 - - 0.0
28/11:00pm 6.8 3.4 2.1 72 2.0 N 9 13 5 7 - - 0.0
28/10:30pm 6.7 3.8 2.4 74 1.8 N 7 9 4 5 - - 0.0
28/10:00pm 6.7 4.0 2.4 74 1.8 N 6 9 3 5 - - 0.0
28/09:30pm 7.3 5.4 2.8 73 1.9 NNE 2 7 1 4 - - 0.0
28/09:00pm 7.9 5.6 3.0 71 2.1 N 4 6 2 3 - - 0.0
28/08:30pm 7.3 4.7 3.2 75 1.8 NNE 6 7 3 4 - - 0.0
28/08:00pm 7.6 5.4 3.1 73 2.0 NE 4 4 2 2 - - 0.0
28/07:30pm 7.6 6.1 3.1 73 2.0 CALM 0 4 0 2 - - 0.0
28/07:00pm 7.7 6.1 2.4 69 2.3 CALM 0 0 0 0 - - 0.0
28/06:30pm 7.8 6.2 2.3 68 2.4 CALM 0 0 0 0 - - 0.0
28/06:00pm 8.3 6.7 2.3 66 2.6 CALM 0 0 0 0 - - 0.0
28/05:30pm 8.8 6.9 2.6 65 2.7 SSE 2 2 1 1 - - 0.0
28/05:00pm 9.2 7.6 2.5 63 2.9 CALM 0 0 0 0 - - 0.0
28/04:30pm 10.0 8.4 2.4 59 3.3 CALM 0 2 0 1 - - 0.0
28/04:00pm 11.0 9.0 2.3 55 3.8 WSW 2 4 1 2 - - 0.0
28/03:30pm 11.2 8.9 2.5 55 3.9 SW 4 6 2 3 - - 0.0
28/03:00pm 10.8 9.2 2.4 56 3.7 CALM 0 0 0 0 - - 0.0
28/02:30pm 10.2 7.8 2.3 58 3.5 WSW 4 7 2 4 - - 0.0
28/02:00pm 10.6 8.7 2.9 59 3.4 SW 2 4 1 2 - - 0.0
28/01:30pm 11.1 8.8 2.7 56 3.7 WSW 4 9 2 5 - - 0.0
28/01:00pm 10.9 8.9 2.2 55 3.8 W 2 6 1 3 - - 0.0
28/12:30pm 10.3 8.0 2.9 60 3.3 NNW 4 6 2 3 - - 0.0
28/12:00pm 8.6 5.9 2.8 67 2.5 N 6 7 3 4 - - 0.0
28/11:30am 8.5 5.7 2.1 64 2.7 NNW 6 9 3 5 - - 0.0
28/11:00am 8.2 5.9 2.7 68 2.4 NNW 4 6 2 3 - - 0.0
28/10:30am 8.0 5.6 2.3 67 2.4 NW 4 6 2 3 - - 0.0
28/10:00am 7.5 5.0 1.4 65 2.5 NNW 4 4 2 2 - - 0.0
28/09:30am 6.9 4.5 2.0 71 2.1 NNW 4 6 2 3 - - 0.0
28/09:00am 6.6 3.6 1.9 72 2.0 N 7 11 4 6 - - 0.0
28/08:30am 6.7 3.6 1.6 70 2.1 N 7 7 4 4 - - 0.0
28/08:00am 6.7 3.6 1.2 68 2.3 N 7 9 4 5 - - 0.0
28/07:30am 6.7 3.6 1.2 68 2.3 NNW 7 9 4 5 - - 0.0
28/07:00am 6.6 3.7 1.5 70 2.1 NNW 6 7 3 4 - - 0.0
28/06:30am 6.5 3.4 1.4 70 2.1 NW 7 11 4 6 - - 0.0
28/06:00am 6.3 3.3 1.8 73 1.9 NW 7 9 4 5 - - 0.0
28/05:30am 6.6 3.7 1.5 70 2.1 NW 6 9 3 5 - - 0.0
28/05:00am 6.4 3.4 2.1 74 1.8 NNW 7 9 4 5 - - 0.0
28/04:30am 6.3 3.6 2.4 76 1.6 NNW 6 9 3 5 - - 0.0
28/04:00am 6.3 3.1 2.8 78 1.5 N 9 11 5 6 - - 0.0
28/03:30am 6.1 2.5 2.7 79 1.4 NNW 11 13 6 7 - - 0.0
28/03:00am 6.3 3.0 2.6 77 1.6 N 9 13 5 7 - - 0.0
28/02:30am 6.2 2.9 2.7 78 1.5 N 9 13 5 7 - - 0.0
28/02:00am 5.8 2.6 3.3 84 1.1 N 9 11 5 6 - - 0.0
28/01:30am 6.4 3.5 2.7 77 1.6 N 7 9 4 5 - - 0.0
28/01:00am 6.4 3.6 3.0 79 1.5 N 7 9 4 5 - - 0.0
28/12:30am 6.5 3.9 3.1 79 1.5 N 6 7 3 4 - - 0.0
28/12:00am 6.4 3.3 3.6 82 1.2 N 9 11 5 6 - - 0.0
 
Date/Time
EST
Temp
°C
App
Temp
°C
Dew
Point
°C
Rel
Hum
%
Delta-T
°C
Wind Press
QNH
hPa
Press
MSL
hPa
Rain since
9am
mm
Dir  Spd
km/h
Gust
km/h
Spd
kts
Gust
kts
27/11:30pm 6.5 3.8 3.5 81 1.3 N 7 9 4 5 - - 0.0
27/11:00pm 6.6 3.8 3.4 80 1.4 N 7 7 4 4 - - 0.0
27/10:30pm 6.6 4.0 3.2 79 1.5 N 6 7 3 4 - - 0.0
27/10:00pm 7.0 4.7 2.9 75 1.8 N 4 6 2 3 - - 0.0
27/09:30pm 7.0 5.1 3.1 76 1.7 NNW 2 4 1 2 - - 0.0
27/09:00pm 6.9 5.4 3.2 77 1.6 CALM 0 4 0 2 - - 0.0
27/08:30pm 7.1 5.4 2.0 70 2.2 CALM 0 0 0 0 - - 0.0
27/08:00pm 6.9 5.3 2.6 74 1.8 CALM 0 0 0 0 - - 0.0
27/07:30pm 6.8 4.8 2.5 74 1.8 SE 2 4 1 2 - - 0.0
27/07:00pm 6.8 4.5 2.9 76 1.7 SSE 4 4 2 2 - - 0.0
27/06:30pm 6.7 4.4 2.8 76 1.7 SSE 4 6 2 3 - - 0.0
27/06:00pm 6.9 4.7 3.2 77 1.6 SSE 4 6 2 3 - - 0.0
27/05:30pm 7.2 5.1 3.8 79 1.5 SSE 4 6 2 3 - - 0.0
27/05:00pm 7.4 6.0 3.8 78 1.6 CALM 0 0 0 0 - - 0.0
27/04:30pm 7.7 6.4 4.3 79 1.5 CALM 0 0 0 0 - - 0.0
27/04:00pm 8.1 6.5 4.3 77 1.7 S 2 4 1 2 - - 0.0
27/03:30pm 8.6 7.0 4.4 75 1.9 SSW 2 6 1 3 - - 0.0
27/03:00pm 9.3 7.3 4.3 71 2.3 SSW 4 7 2 4 - - 0.0
27/02:30pm 9.8 8.1 4.0 67 2.6 SW 2 7 1 4 - - 0.0
27/02:00pm 10.4 8.4 4.3 66 2.8 S 4 6 2 3 - - 0.0
27/01:30pm 10.4 9.3 5.0 69 2.5 CALM 0 4 0 2 - - 0.0
27/01:00pm 10.3 9.1 4.7 68 2.6 CALM 0 0 0 0 - - 0.0
27/12:30pm 9.4 8.0 3.6 67 2.6 CALM 0 4 0 2 - - 0.0
27/12:00pm 9.9 8.5 3.4 64 2.9 CALM 0 4 0 2 - - 0.0
27/11:30am 10.3 8.7 4.5 67 2.7 N 2 6 1 3 - - 0.0
27/11:00am 9.1 7.0 3.9 70 2.3 N 4 9 2 5 - - 0.0
27/10:30am 7.8 5.0 3.3 73 2.0 N 7 11 4 6 - - 0.0
27/10:00am 7.3 4.8 3.5 77 1.7 N 6 11 3 6 - - 0.0
27/09:30am 6.0 2.8 3.0 81 1.3 N 9 13 5 7 - - 0.0
27/09:00am 5.5 2.6 2.8 83 1.1 N 7 11 4 6 - - 0.0
27/08:30am 4.8 2.0 3.1 89 0.7 NNE 7 9 4 5 - - 0.0
27/08:00am 3.7 0.8 2.8 94 0.4 N 7 13 4 7 - - 0.0
27/07:30am 3.7 1.0 2.8 94 0.4 N 6 9 3 5 - - 0.0
27/07:00am 4.9 2.0 2.8 86 0.9 NNE 7 11 4 6 - - 0.0
27/06:30am 4.9 2.1 3.1 88 0.8 NNE 7 11 4 6 - - 0.0
27/06:00am 5.3 2.5 3.2 86 0.9 NNE 7 11 4 6 - - 0.0
27/05:30am 6.0 3.8 3.2 82 1.2 NE 4 7 2 4 - - 0.0
27/05:00am 6.2 3.8 4.2 87 0.9 NNE 6 9 3 5 - - 0.0
27/04:30am 6.0 3.7 4.6 91 0.6 NNE 6 9 3 5 - - 0.0
27/04:00am 5.8 3.3 4.9 94 0.4 N 7 9 4 5 - - 0.0
27/03:30am 6.0 3.5 5.0 93 0.4 N 7 9 4 5 - - 0.0
27/03:00am 6.0 3.8 5.1 94 0.4 NNE 6 7 3 4 - - 0.0
27/02:30am 6.2 4.0 5.2 93 0.5 NNE 6 9 3 5 - - 0.0
27/02:00am 6.1 3.9 5.2 94 0.4 NNE 6 7 3 4 - - 0.0
27/01:30am 6.0 3.8 5.3 95 0.3 NNE 6 9 3 5 - - 0.0
27/01:00am 5.6 3.3 5.0 96 0.3 NNE 6 7 3 4 - - 0.0
27/12:30am 6.5 5.3 4.8 89 0.8 CALM 0 0 0 0 - - 0.0
27/12:00am 6.6 5.1 5.2 91 0.6 S 2 4 1 2 - - 0.0
 
Date/Time
EST
Temp
°C
App
Temp
°C
Dew
Point
°C
Rel
Hum
%
Delta-T
°C
Wind Press
QNH
hPa
Press
MSL
hPa
Rain since
9am
mm
Dir  Spd
km/h
Gust
km/h
Spd
kts
Gust
kts
26/11:30pm 6.7 5.6 5.3 91 0.6 CALM 0 4 0 2 - - 0.0
26/11:00pm 6.4 5.0 5.7 95 0.3 N 2 6 1 3 - - 0.0

Other Formats:

Comma delimited format used in spreadsheet applications
http://www.bom.gov.au/fwo/IDV60801/IDV60801.95913.axf

JavaScript Object Notation format (JSON) in row-major order
http://www.bom.gov.au/fwo/IDV60801/IDV60801.95913.json